createdAt,value
2023-05-20T00:00:00.839Z,102909.84
2023-05-20T00:02:29.147Z,102907.16
2023-05-20T00:04:57.561Z,102906.44
2023-05-20T00:07:27.244Z,102901.94
2023-05-20T00:09:55.492Z,102899.47
2023-05-20T00:12:23.384Z,102908.25
2023-05-20T00:14:51.782Z,102905.63
2023-05-20T00:17:20.638Z,102906.50
2023-05-20T00:19:48.598Z,102908.31
2023-05-20T00:22:16.563Z,102911.97
2023-05-20T00:24:45.969Z,102907.53
2023-05-20T00:27:13.956Z,102918.25
2023-05-20T00:29:41.923Z,102914.69
2023-05-20T00:32:10.126Z,102912.97
2023-05-20T00:34:38.074Z,102912.03
2023-05-20T00:37:06.435Z,102905.06
2023-05-20T00:39:34.427Z,102913.91
2023-05-20T00:42:03.816Z,102913.03
2023-05-20T00:44:31.827Z,102912.16
2023-05-20T00:46:59.824Z,102914.84
2023-05-20T00:49:27.908Z,102914.91
2023-05-20T00:51:56.581Z,102912.31
2023-05-20T00:54:24.663Z,102916.81
2023-05-20T00:56:52.902Z,102909.63
2023-05-20T00:59:22.322Z,102910.56
2023-05-20T01:01:50.882Z,102910.66
2023-05-20T01:04:19.013Z,102912.47
2023-05-20T01:06:47.877Z,102919.63
2023-05-20T01:09:16.027Z,102916.06
2023-05-20T01:11:48.178Z,102908.00
2023-05-20T01:14:19.490Z,102914.38
2023-05-20T01:16:51.251Z,102915.25
2023-05-20T01:19:39.608Z,102912.56
2023-05-20T01:22:12.459Z,102914.38
2023-05-20T01:24:43.118Z,102913.47
2023-05-20T01:27:11.814Z,102918.84
2023-05-20T01:29:39.883Z,102919.81
2023-05-20T01:32:12.617Z,102924.31
2023-05-20T01:34:43.893Z,102926.03
2023-05-20T01:37:13.266Z,102924.31
2023-05-20T01:39:43.771Z,102916.25
2023-05-20T01:42:13.108Z,102929.72
2023-05-20T01:44:41.765Z,102917.19
2023-05-20T01:47:09.781Z,102916.31
2023-05-20T01:49:37.889Z,102919.88
2023-05-20T01:52:06.862Z,102920.09
2023-05-20T01:54:35.340Z,102928.00
2023-05-20T01:57:04.899Z,102925.31
2023-05-20T01:59:32.902Z,102928.06
2023-05-20T02:02:01.713Z,102926.31
2023-05-20T02:04:29.729Z,102921.00
2023-05-20T02:06:57.651Z,102923.69
2023-05-20T02:09:25.725Z,102930.03
2023-05-20T02:11:53.870Z,102934.59
2023-05-20T02:14:23.338Z,102934.59
2023-05-20T02:16:51.458Z,102934.59
2023-05-20T02:19:23.877Z,102932.88
2023-05-20T02:21:52.469Z,102925.81
2023-05-20T02:24:21.284Z,102930.28
2023-05-20T02:26:51.206Z,102931.16
2023-05-20T02:29:20.067Z,102932.97
2023-05-20T02:31:49.676Z,102934.78
2023-05-20T02:34:19.281Z,102936.66
2023-05-20T02:36:47.350Z,102934.91
2023-05-20T02:39:15.606Z,102933.09
2023-05-20T02:41:43.638Z,102929.63
2023-05-20T02:44:11.630Z,102931.44
2023-05-20T02:46:39.698Z,102929.72
2023-05-20T02:49:09.119Z,102928.03
2023-05-20T02:51:37.565Z,102922.94
2023-05-20T02:54:05.637Z,102927.16
2023-05-20T02:56:34.399Z,102939.69
2023-05-20T02:59:03.670Z,102943.25
2023-05-20T03:01:33.872Z,102940.56
2023-05-20T03:04:02.393Z,102947.75
2023-05-20T03:06:32.104Z,102946.94
2023-05-20T03:09:00.283Z,102952.22
2023-05-20T03:11:28.216Z,102932.19
2023-05-20T03:13:56.194Z,102948.63
2023-05-20T03:16:25.586Z,102954.88
2023-05-20T03:18:54.621Z,102958.34
2023-05-20T03:21:24.092Z,102957.34
2023-05-20T03:23:53.843Z,102952.63
2023-05-20T03:26:23.223Z,102959.59
2023-05-20T03:28:51.898Z,102956.66
2023-05-20T03:31:21.131Z,102952.81
2023-05-20T03:33:49.304Z,102964.25
2023-05-20T03:36:17.425Z,102961.31
2023-05-20T03:38:45.449Z,102963.69
2023-05-20T03:41:15.137Z,102939.81
2023-05-20T03:43:43.233Z,102962.28
2023-05-20T03:46:11.841Z,102959.38
2023-05-20T03:48:40.053Z,102959.22
2023-05-20T03:51:08.532Z,102962.56
2023-05-20T03:53:36.593Z,102951.81
2023-05-20T03:56:04.914Z,102963.88
2023-05-20T03:58:35.333Z,102966.28
2023-05-20T04:01:03.422Z,102963.47
2023-05-20T04:03:32.053Z,102961.47
2023-05-20T04:06:00.102Z,102964.81
2023-05-20T04:08:28.109Z,102967.34
2023-05-20T04:10:57.657Z,102960.03
2023-05-20T04:13:26.749Z,102948.31
2023-05-20T04:15:56.180Z,102955.44
2023-05-20T04:18:24.287Z,102968.50
2023-05-20T04:20:56.299Z,102959.69
2023-05-20T04:23:24.728Z,102971.75
2023-05-20T04:25:52.825Z,102970.56
2023-05-20T04:28:23.873Z,102967.75
2023-05-20T04:31:02.775Z,102969.25
2023-05-20T04:33:32.953Z,102965.53
2023-05-20T04:36:03.113Z,102970.69
2023-05-20T04:38:32.394Z,102969.66
2023-05-20T04:41:02.400Z,102951.88
2023-05-20T04:43:31.250Z,102957.00
2023-05-20T04:46:06.155Z,102972.59
2023-05-20T04:48:34.950Z,102972.53
2023-05-20T04:51:03.150Z,102965.25
2023-05-20T04:53:33.831Z,102969.53
2023-05-20T04:56:03.460Z,102966.69
2023-05-20T04:58:33.480Z,102968.28
2023-05-20T05:01:03.523Z,102967.25
2023-05-20T05:03:31.603Z,102961.78
2023-05-20T05:06:00.237Z,102979.38
2023-05-20T05:08:28.239Z,102931.22
2023-05-20T05:10:56.327Z,102970.13
2023-05-20T05:13:24.419Z,102969.09
2023-05-20T05:15:59.665Z,102969.03
2023-05-20T05:18:30.580Z,102973.28
2023-05-20T05:21:03.093Z,102974.97
2023-05-20T05:23:31.389Z,102960.09
2023-05-20T05:26:00.447Z,102969.25
2023-05-20T05:28:29.018Z,102967.34
2023-05-20T05:30:57.291Z,102949.84
2023-05-20T05:33:25.481Z,102974.16
2023-05-20T05:35:56.761Z,102966.00
2023-05-20T05:38:24.862Z,102977.47
2023-05-20T05:40:53.222Z,102979.06
2023-05-20T05:43:21.363Z,102978.03
2023-05-20T05:45:49.884Z,102951.56
2023-05-20T05:48:17.906Z,102972.38
2023-05-20T05:50:47.014Z,102978.34
2023-05-20T05:53:18.340Z,102984.41
2023-05-20T05:55:49.394Z,102985.19
2023-05-20T05:58:17.891Z,102989.47
2023-05-20T06:00:46.538Z,102988.44
2023-05-20T06:03:14.725Z,102980.63
2023-05-20T06:05:46.561Z,102989.97
2023-05-20T06:08:14.584Z,102985.38
2023-05-20T06:10:48.672Z,102995.03
2023-05-20T06:13:17.428Z,102986.97
2023-05-20T06:15:46.468Z,102983.44
2023-05-20T06:18:14.476Z,102988.34
2023-05-20T06:20:43.006Z,102989.03
2023-05-20T06:23:11.008Z,102996.19
2023-05-20T06:25:54.487Z,102987.94
2023-05-20T06:28:22.630Z,102983.31
2023-05-20T06:30:50.607Z,102986.88
2023-05-20T06:33:20.298Z,102978.81
2023-05-20T06:35:48.923Z,102986.47
2023-05-20T06:38:17.124Z,102984.63
2023-05-20T06:40:45.189Z,102989.00
2023-05-20T06:43:14.682Z,102995.16
2023-05-20T06:45:50.730Z,102991.59
2023-05-20T06:48:29.753Z,102987.00
2023-05-20T06:50:58.132Z,102996.75
2023-05-20T06:53:26.242Z,102995.69
2023-05-20T06:55:55.634Z,103000.91
2023-05-20T06:58:25.151Z,102997.25
2023-05-20T07:00:53.849Z,102998.03
2023-05-20T07:03:22.013Z,102997.00
2023-05-20T07:05:50.071Z,102996.91
2023-05-20T07:08:19.598Z,102998.66
2023-05-20T07:10:47.666Z,102997.53
2023-05-20T07:13:19.320Z,102997.44
2023-05-20T07:15:49.258Z,103000.91
2023-05-20T07:18:17.883Z,103007.16
2023-05-20T07:20:51.646Z,102988.47
2023-05-20T07:23:55.274Z,102987.41
2023-05-20T07:26:23.462Z,102990.91
2023-05-20T07:28:52.043Z,102971.88
2023-05-20T07:31:21.510Z,102997.97
2023-05-20T07:33:49.593Z,102998.84
2023-05-20T07:36:17.662Z,102993.38
2023-05-20T07:39:00.995Z,102994.28
2023-05-20T07:41:32.171Z,102991.59
2023-05-20T07:44:00.379Z,102991.56
2023-05-20T07:46:30.471Z,102997.84
2023-05-20T07:48:58.647Z,102982.59
2023-05-20T07:51:26.663Z,102982.59
2023-05-20T07:53:54.921Z,102980.78
2023-05-20T07:56:23.059Z,102975.38
2023-05-20T07:58:54.238Z,102980.69
2023-05-20T08:01:22.866Z,102977.97
2023-05-20T08:03:53.023Z,102971.47
2023-05-20T08:06:24.420Z,102980.41
2023-05-20T08:08:54.218Z,102978.56
2023-05-20T08:11:27.101Z,102981.22
2023-05-20T08:13:55.342Z,102971.25
2023-05-20T08:16:25.466Z,102970.50
2023-05-20T08:18:55.078Z,102975.59
2023-05-20T08:21:23.479Z,102969.38
2023-05-20T08:23:52.002Z,102972.91
2023-05-20T08:26:20.163Z,102970.22
2023-05-20T08:28:48.467Z,102973.63
2023-05-20T08:31:18.668Z,102969.09
2023-05-20T08:33:47.165Z,102948.31
2023-05-20T08:36:16.738Z,102969.97
2023-05-20T08:38:45.220Z,102968.03
2023-05-20T08:41:13.579Z,102969.00
2023-05-20T08:43:45.063Z,102969.81
2023-05-20T08:46:14.004Z,102964.56
2023-05-20T08:48:43.257Z,102962.94
2023-05-20T08:51:12.489Z,102961.78
2023-05-20T08:53:42.580Z,102969.88
2023-05-20T08:56:12.578Z,102968.03
2023-05-20T08:58:40.592Z,102966.22
2023-05-20T09:01:09.385Z,102956.31
2023-05-20T09:03:37.351Z,102948.47
2023-05-20T09:06:06.591Z,102961.59
2023-05-20T09:08:35.379Z,102964.19
2023-05-20T09:11:04.814Z,102928.66
2023-05-20T09:13:34.064Z,102953.69
2023-05-20T09:16:02.632Z,102949.88
2023-05-20T09:18:31.442Z,102954.28
2023-05-20T09:20:59.578Z,102952.56
2023-05-20T09:23:27.955Z,102945.53
2023-05-20T09:25:55.959Z,102955.16
2023-05-20T09:28:26.694Z,102950.63
2023-05-20T09:30:59.030Z,102948.88
2023-05-20T09:33:32.102Z,102953.41
2023-05-20T09:36:05.573Z,102939.41
2023-05-20T09:38:39.464Z,102947.16
2023-05-20T09:41:11.550Z,102952.56
2023-05-20T09:43:41.974Z,102908.97
2023-05-20T09:46:10.975Z,102949.16
2023-05-20T09:48:39.828Z,102947.34
2023-05-20T09:51:08.430Z,102941.94
2023-05-20T09:53:37.316Z,102941.94
2023-05-20T09:56:05.924Z,102942.00
2023-05-20T09:58:36.728Z,102945.59
2023-05-20T10:01:07.572Z,102930.63
2023-05-20T10:03:36.059Z,102942.00
2023-05-20T10:06:21.829Z,102936.63
2023-05-20T10:09:03.784Z,102929.97
2023-05-20T10:11:41.381Z,102938.47
2023-05-20T10:14:34.408Z,102933.25
2023-05-20T10:17:10.979Z,102933.16
2023-05-20T10:19:39.056Z,102924.28
2023-05-20T10:22:09.156Z,102928.72
2023-05-20T10:24:38.446Z,102892.09
2023-05-20T10:27:09.981Z,102919.75
2023-05-20T10:29:45.640Z,102919.84
2023-05-20T10:32:25.469Z,102917.13
2023-05-20T10:34:53.760Z,102915.50
2023-05-20T10:37:26.866Z,102902.47
2023-05-20T10:40:06.903Z,102923.50
2023-05-20T10:42:35.163Z,102922.72
2023-05-20T10:45:04.464Z,102921.88
2023-05-20T10:47:34.204Z,102925.41
2023-05-20T10:50:04.803Z,102921.00
2023-05-20T10:52:35.180Z,102921.75
2023-05-20T10:55:04.915Z,102912.03
2023-05-20T10:57:34.090Z,102919.06
2023-05-20T11:00:02.243Z,102913.78
2023-05-20T11:02:30.558Z,102899.88
2023-05-20T11:05:00.084Z,102918.19
2023-05-20T11:07:29.340Z,102915.59
2023-05-20T11:09:57.443Z,102911.91
2023-05-20T11:14:55.395Z,102906.63
2023-05-20T11:17:23.472Z,102907.31
2023-05-20T11:19:52.067Z,102897.66
2023-05-20T11:22:21.900Z,102897.47
2023-05-20T11:24:50.030Z,102896.72
2023-05-20T11:27:18.060Z,102896.78
2023-05-20T11:29:46.360Z,102891.22
2023-05-20T11:32:14.403Z,102889.41
2023-05-20T11:34:42.691Z,102883.91
2023-05-20T11:37:12.484Z,102882.06
2023-05-20T11:39:41.831Z,102881.13
2023-05-20T11:42:09.878Z,102882.94
2023-05-20T11:44:38.496Z,102877.56
2023-05-20T11:47:06.644Z,102873.91
2023-05-20T11:49:41.510Z,102880.94
2023-05-20T11:52:11.495Z,102872.84
2023-05-20T11:54:39.709Z,102875.56
2023-05-20T11:57:09.351Z,102875.44
2023-05-20T11:59:37.647Z,102843.25
2023-05-20T12:02:05.646Z,102787.53
2023-05-20T12:04:33.674Z,102869.09
2023-05-20T12:07:01.942Z,102871.03
2023-05-20T12:09:29.984Z,102872.69
2023-05-20T12:11:59.386Z,102849.22
2023-05-20T12:14:28.759Z,102861.78
2023-05-20T12:16:56.859Z,102859.97
2023-05-20T12:19:24.993Z,102866.13
2023-05-20T12:21:53.612Z,102867.94
2023-05-20T12:24:21.737Z,102864.28
2023-05-20T12:26:49.719Z,102870.56
2023-05-20T12:29:17.738Z,102861.50
2023-05-20T12:31:47.029Z,102848.13
2023-05-20T12:34:15.105Z,102826.00
2023-05-20T12:36:43.078Z,102846.47
2023-05-20T12:39:11.214Z,102856.28
2023-05-20T12:41:39.239Z,102846.66
2023-05-20T12:44:07.354Z,102854.56
2023-05-20T12:46:35.958Z,102859.84
2023-05-20T12:49:05.722Z,102858.22
2023-05-20T12:51:33.726Z,102858.13
2023-05-20T12:54:02.338Z,102859.97
2023-05-20T12:56:30.701Z,102851.88
2023-05-20T12:58:59.051Z,102849.25
2023-05-20T13:01:27.150Z,102845.50
2023-05-20T13:03:55.472Z,102843.78
2023-05-20T13:06:25.232Z,102838.19
2023-05-20T13:08:53.400Z,102841.66
2023-05-20T13:11:21.731Z,102844.34
2023-05-20T13:13:49.751Z,102841.66
2023-05-20T13:16:18.147Z,102837.22
2023-05-20T13:18:46.552Z,102842.34
2023-05-20T13:21:14.624Z,102833.38
2023-05-20T13:23:44.331Z,102825.38
2023-05-20T13:26:12.641Z,102828.75
2023-05-20T13:28:40.657Z,102819.72
2023-05-20T13:31:08.803Z,102824.13
2023-05-20T13:33:36.929Z,102830.41
2023-05-20T13:36:05.271Z,102816.03
2023-05-20T13:38:35.104Z,102816.91
2023-05-20T13:41:04.687Z,102809.59
2023-05-20T13:43:33.320Z,102803.31
2023-05-20T13:46:01.529Z,102801.47
2023-05-20T13:48:30.237Z,102800.72
2023-05-20T13:50:58.155Z,102802.34
2023-05-20T13:53:26.142Z,102795.13
2023-05-20T13:55:54.141Z,102796.00
2023-05-20T13:58:23.615Z,102796.00
2023-05-20T14:00:52.072Z,102796.97
2023-05-20T14:03:20.355Z,102791.69
2023-05-20T14:05:48.498Z,102790.81
2023-05-20T14:08:16.600Z,102795.22
2023-05-20T14:10:44.629Z,102795.22
2023-05-20T14:13:12.642Z,102795.31
2023-05-20T14:15:42.161Z,102793.50
2023-05-20T14:18:10.213Z,102789.94
2023-05-20T14:20:38.296Z,102790.97
2023-05-20T14:23:06.428Z,102793.69
2023-05-20T14:25:34.373Z,102792.81
2023-05-20T14:28:02.390Z,102797.44
2023-05-20T14:30:30.602Z,102794.84
2023-05-20T14:33:00.051Z,102764.44
2023-05-20T14:35:28.112Z,102785.88
2023-05-20T14:37:56.221Z,102792.91
2023-05-20T14:40:24.431Z,102789.22
2023-05-20T14:42:52.407Z,102786.66
2023-05-20T14:45:20.987Z,102784.81
2023-05-20T14:47:49.053Z,102783.94
2023-05-20T14:50:18.447Z,102782.88
2023-05-20T14:52:46.429Z,102771.34
2023-05-20T14:55:14.364Z,102777.59
2023-05-20T14:57:42.444Z,102767.66
2023-05-20T15:00:11.955Z,102770.28
2023-05-20T15:02:40.057Z,102768.53
2023-05-20T15:05:08.768Z,102772.97
2023-05-20T15:07:38.164Z,102772.97
2023-05-20T15:10:07.815Z,102773.72
2023-05-20T15:12:36.001Z,102762.19
2023-05-20T15:15:04.347Z,102762.06
2023-05-20T15:17:32.482Z,102757.72
2023-05-20T15:20:00.550Z,102761.31
2023-05-20T15:22:28.486Z,102760.44
2023-05-20T15:24:57.830Z,102760.44
2023-05-20T15:27:25.889Z,102764.94
2023-05-20T15:29:53.993Z,102754.44
2023-05-20T15:32:22.082Z,102757.25
2023-05-20T15:34:50.194Z,102756.28
2023-05-20T15:37:18.197Z,102754.44
2023-05-20T15:39:46.280Z,102741.91
2023-05-20T15:42:18.226Z,102727.38
2023-05-20T15:44:46.349Z,102750.13
2023-05-20T15:47:14.392Z,102749.34
2023-05-20T15:49:42.392Z,102750.28
2023-05-20T15:52:10.316Z,102742.38
2023-05-20T15:54:38.282Z,102735.28
2023-05-20T15:57:06.736Z,102742.50
2023-05-20T15:59:36.016Z,102744.25
2023-05-20T16:02:03.996Z,102743.38
2023-05-20T16:04:32.587Z,102743.19
2023-05-20T16:07:00.808Z,102732.00
2023-05-20T16:09:28.841Z,102734.22
2023-05-20T16:11:57.202Z,102737.88
2023-05-20T16:14:25.216Z,102729.13
2023-05-20T16:16:54.601Z,102728.13
2023-05-20T16:19:23.323Z,102736.41
2023-05-20T16:21:51.395Z,102728.31
2023-05-20T16:24:19.434Z,102727.75
2023-05-20T16:26:47.499Z,102727.66
2023-05-20T16:29:16.510Z,102724.09
2023-05-20T16:31:46.706Z,102726.88
2023-05-20T16:34:17.057Z,102717.06
2023-05-20T16:36:46.300Z,102713.47
2023-05-20T16:39:14.377Z,102713.59
2023-05-20T16:41:42.789Z,102715.41
2023-05-20T16:44:11.206Z,102717.34
2023-05-20T16:46:39.215Z,102710.19
2023-05-20T16:49:07.308Z,102703.91
2023-05-20T16:51:36.704Z,102708.41
2023-05-20T16:54:04.923Z,102700.63
2023-05-20T16:56:33.407Z,102708.72
2023-05-20T16:59:01.505Z,102693.00
2023-05-20T17:01:29.647Z,102700.91
2023-05-20T17:03:57.841Z,102696.47
2023-05-20T17:06:25.832Z,102691.19
2023-05-20T17:08:55.235Z,102678.44
2023-05-20T17:11:23.576Z,102694.06
2023-05-20T17:13:51.584Z,102687.22
2023-05-20T17:16:19.606Z,102696.88
2023-05-20T17:18:48.300Z,102695.13
2023-05-20T17:21:20.199Z,102691.66
2023-05-20T17:23:48.493Z,102685.56
2023-05-20T17:26:18.187Z,102682.19
2023-05-20T17:28:46.320Z,102688.16
2023-05-20T17:31:14.296Z,102693.56
2023-05-20T17:33:42.575Z,102677.06
2023-05-20T17:36:10.667Z,102691.91
2023-05-20T17:38:38.793Z,102610.88
2023-05-20T17:41:06.727Z,102691.84
2023-05-20T17:43:36.382Z,102690.09
2023-05-20T17:46:04.548Z,102688.38
2023-05-20T17:48:33.496Z,102699.16
2023-05-20T17:51:01.864Z,102695.88
2023-05-20T17:53:29.936Z,102704.53
2023-05-20T17:55:57.953Z,102692.19
2023-05-20T17:58:26.733Z,102700.22
2023-05-20T18:00:56.148Z,102701.06
2023-05-20T18:03:24.275Z,102692.19
2023-05-20T18:05:54.471Z,102701.25
2023-05-20T18:08:25.404Z,102689.59
2023-05-20T18:10:53.594Z,102670.69
2023-05-20T18:13:21.593Z,102687.00
2023-05-20T18:15:49.634Z,102686.16
2023-05-20T18:18:19.130Z,102682.56
2023-05-20T18:20:47.064Z,102680.41
2023-05-20T18:23:15.235Z,102682.94
2023-05-20T18:25:43.230Z,102678.69
2023-05-20T18:28:12.811Z,102692.94
2023-05-20T18:30:40.983Z,102682.69
2023-05-20T18:33:08.984Z,102686.09
2023-05-20T18:35:39.236Z,102685.31
2023-05-20T18:38:07.616Z,102683.75
2023-05-20T18:40:35.871Z,102680.41
2023-05-20T18:43:04.115Z,102683.09
2023-05-20T18:45:32.140Z,102687.69
2023-05-20T18:48:00.452Z,102689.53
2023-05-20T18:50:28.583Z,102690.56
2023-05-20T18:52:58.358Z,102689.88
2023-05-20T18:55:26.662Z,102697.03
2023-05-20T18:57:54.619Z,102690.81
2023-05-20T19:00:22.611Z,102704.47
2023-05-20T19:02:50.728Z,102695.53
2023-05-20T19:05:19.794Z,102682.91
2023-05-20T19:07:47.760Z,102698.38
2023-05-20T19:10:17.178Z,102691.25
2023-05-20T19:12:45.191Z,102694.03
2023-05-20T19:15:13.364Z,102619.66
2023-05-20T19:17:41.413Z,102696.22
2023-05-20T19:20:10.569Z,102701.41
2023-05-20T19:22:39.384Z,102701.53
2023-05-20T19:25:08.050Z,102700.81
2023-05-20T19:27:37.424Z,102695.44
2023-05-20T19:30:06.439Z,102704.56
2023-05-20T19:32:36.070Z,102693.91
2023-05-20T19:35:05.659Z,102702.91
2023-05-20T19:37:33.795Z,102703.84
2023-05-20T19:40:01.949Z,102700.41
2023-05-20T19:42:29.880Z,102695.97
2023-05-20T19:44:59.245Z,102696.94
2023-05-20T19:47:27.377Z,102678.16
2023-05-20T19:49:55.502Z,102699.03
2023-05-20T19:52:23.464Z,102694.06
2023-05-20T19:54:51.503Z,102692.44
2023-05-20T19:57:19.513Z,102702.16
2023-05-20T19:59:47.585Z,102696.00
2023-05-20T20:02:16.977Z,102704.06
2023-05-20T20:04:45.100Z,102698.16
2023-05-20T20:07:13.950Z,102707.97
2023-05-20T20:09:42.018Z,102701.78
2023-05-20T20:12:09.995Z,102701.00
2023-05-20T20:14:38.095Z,102693.97
2023-05-20T20:17:06.289Z,102699.34
2023-05-20T20:19:35.759Z,102700.41
2023-05-20T20:22:03.878Z,102698.75
2023-05-20T20:24:31.825Z,102685.41
2023-05-20T20:27:00.018Z,102692.66
2023-05-20T20:29:28.059Z,102688.31
2023-05-20T20:31:56.097Z,102681.28
2023-05-20T20:34:25.297Z,102685.03
2023-05-20T20:36:54.878Z,102689.38
2023-05-20T20:39:25.081Z,102691.88
2023-05-20T20:41:54.570Z,102686.44
2023-05-20T20:44:22.850Z,102686.44
2023-05-20T20:46:51.634Z,102655.81
2023-05-20T20:49:20.146Z,102685.56
2023-05-20T20:51:48.883Z,102679.13
2023-05-20T20:54:18.216Z,102674.88
2023-05-20T20:56:47.215Z,102680.19
2023-05-20T20:59:15.889Z,102682.72
2023-05-20T21:01:45.722Z,102684.41
2023-05-20T21:04:14.589Z,102685.41
2023-05-20T21:06:46.027Z,102686.25
2023-05-20T21:09:14.488Z,102683.53
2023-05-20T21:11:45.289Z,102688.00
2023-05-20T21:14:13.964Z,102688.88
2023-05-20T21:16:43.141Z,102685.41
2023-05-20T21:19:11.346Z,102692.50
2023-05-20T21:21:39.284Z,102687.13
2023-05-20T21:24:07.998Z,102685.28
2023-05-20T21:26:36.070Z,102683.53
2023-05-20T21:29:06.073Z,102685.22
2023-05-20T21:31:34.124Z,102681.72
2023-05-20T21:34:02.072Z,102686.16
2023-05-20T21:36:30.120Z,102679.91
2023-05-20T21:38:58.066Z,102670.03
2023-05-20T21:41:27.172Z,102602.53
2023-05-20T21:43:55.258Z,102672.72
2023-05-20T21:46:24.672Z,102669.25
2023-05-20T21:48:52.699Z,102646.69
2023-05-20T21:51:20.702Z,102673.66
2023-05-20T21:53:48.715Z,102670.09
2023-05-20T21:56:16.737Z,102671.06
2023-05-20T21:58:44.774Z,102666.56
2023-05-20T22:01:12.758Z,102672.00
2023-05-20T22:03:47.978Z,102669.41
2023-05-20T22:06:17.693Z,102661.41
2023-05-20T22:08:45.905Z,102661.34
2023-05-20T22:11:15.390Z,102657.78
2023-05-20T22:13:44.315Z,102658.66
2023-05-20T22:16:12.356Z,102663.94
2023-05-20T22:18:42.694Z,102661.41
2023-05-20T22:21:11.178Z,102661.34
2023-05-20T22:23:39.116Z,102659.59
2023-05-20T22:26:08.618Z,102656.13
2023-05-20T22:28:36.613Z,102664.19
2023-05-20T22:31:04.781Z,102664.19
2023-05-20T22:33:32.954Z,102658.81
2023-05-20T22:36:02.397Z,102663.31
2023-05-20T22:38:30.840Z,102657.06
2023-05-20T22:40:58.857Z,102651.22
2023-05-20T22:43:26.942Z,102656.41
2023-05-20T22:45:54.920Z,102656.28
2023-05-20T22:48:23.505Z,102658.97
2023-05-20T22:50:54.010Z,102658.97
2023-05-20T22:53:23.792Z,102651.22
2023-05-20T22:55:51.810Z,102655.53
2023-05-20T22:58:20.154Z,102639.84
2023-05-20T23:00:48.213Z,102620.94
2023-05-20T23:03:16.316Z,102653.88
2023-05-20T23:05:44.256Z,102653.91
2023-05-20T23:08:12.291Z,102651.22
2023-05-20T23:10:41.723Z,102653.91
2023-05-20T23:13:09.657Z,102650.44
2023-05-20T23:15:37.867Z,102650.53
2023-05-20T23:18:06.034Z,102651.41
2023-05-20T23:20:34.133Z,102641.59
2023-05-20T23:23:10.645Z,102636.31
2023-05-20T23:25:39.720Z,102636.38
2023-05-20T23:28:09.242Z,102628.31
2023-05-20T23:30:37.367Z,102624.06
2023-05-20T23:33:05.578Z,102590.13
2023-05-20T23:35:34.016Z,102613.38
2023-05-20T23:38:02.292Z,102615.03
2023-05-20T23:40:30.557Z,102615.03
2023-05-20T23:42:58.555Z,102616.94
2023-05-20T23:45:28.575Z,102612.53
2023-05-20T23:47:56.669Z,102610.63
2023-05-20T23:50:24.676Z,102612.44
2023-05-20T23:52:52.633Z,102617.81
2023-05-20T23:55:20.840Z,102618.69
2023-05-20T23:57:49.787Z,102616.94
